createdAt,value
2018-12-15T00:00:03.578Z,23.49
2018-12-15T00:01:04.736Z,23.90
2018-12-15T00:02:05.869Z,23.86
2018-12-15T00:03:22.087Z,23.53
2018-12-15T00:04:23.341Z,23.16
2018-12-15T00:05:24.487Z,23.23
2018-12-15T00:06:25.646Z,23.44
2018-12-15T00:07:26.802Z,23.29
2018-12-15T00:08:27.986Z,23.63
2018-12-15T00:09:29.158Z,23.50
2018-12-15T00:10:30.295Z,23.03
2018-12-15T00:11:31.445Z,23.46
2018-12-15T00:12:32.573Z,23.23
2018-12-15T00:13:33.701Z,23.11
2018-12-15T00:14:34.879Z,23.47
2018-12-15T00:15:36.045Z,23.44
2018-12-15T00:16:37.221Z,23.54
2018-12-15T00:17:38.371Z,23.46
2018-12-15T00:18:39.625Z,23.33
2018-12-15T00:19:40.759Z,23.18
2018-12-15T00:20:41.899Z,23.03
2018-12-15T00:21:43.066Z,23.35
2018-12-15T00:22:44.198Z,23.47
2018-12-15T00:23:45.327Z,23.24
2018-12-15T00:24:46.483Z,23.03
2018-12-15T00:25:47.707Z,23.05
2018-12-15T00:26:48.882Z,22.95
2018-12-15T00:27:50.041Z,23.18
2018-12-15T00:28:51.165Z,23.07
2018-12-15T00:29:52.306Z,23.34
2018-12-15T00:30:53.447Z,22.83
2018-12-15T00:31:54.583Z,23.42
2018-12-15T00:32:55.731Z,22.85
2018-12-15T00:33:56.878Z,23.08
2018-12-15T00:34:58.022Z,22.90
2018-12-15T00:35:59.163Z,22.86
2018-12-15T00:37:00.390Z,23.08
2018-12-15T00:38:01.546Z,23.44
2018-12-15T00:39:04.980Z,22.93
2018-12-15T00:40:06.162Z,23.24
2018-12-15T00:41:07.287Z,22.88
2018-12-15T00:42:08.433Z,23.38
2018-12-15T00:43:09.541Z,22.95
2018-12-15T00:44:10.694Z,23.28
2018-12-15T00:45:11.858Z,23.27
2018-12-15T00:46:13.079Z,23.24
2018-12-15T00:47:14.298Z,23.12
2018-12-15T00:48:15.431Z,23.55
2018-12-15T00:49:16.558Z,23.54
2018-12-15T00:50:17.693Z,23.73
2018-12-15T00:51:18.834Z,23.31
2018-12-15T00:52:19.990Z,23.32
2018-12-15T00:53:21.153Z,23.77
2018-12-15T00:54:22.301Z,23.82
2018-12-15T00:55:23.453Z,23.21
2018-12-15T00:56:24.585Z,23.32
2018-12-15T00:57:25.886Z,23.62
2018-12-15T00:58:27.022Z,23.70
2018-12-15T00:59:28.146Z,23.73
2018-12-15T01:00:29.301Z,24.09
2018-12-15T01:01:37.271Z,23.25
2018-12-15T01:02:38.410Z,23.22
2018-12-15T01:03:39.529Z,23.71
2018-12-15T01:04:40.673Z,23.54
2018-12-15T01:05:41.821Z,23.73
2018-12-15T01:06:42.977Z,23.50
2018-12-15T01:07:44.127Z,24.06
2018-12-15T01:08:45.269Z,23.80
2018-12-15T01:09:46.555Z,23.62
2018-12-15T01:10:47.706Z,23.54
2018-12-15T01:11:55.942Z,23.55
2018-12-15T01:12:57.445Z,23.28
2018-12-15T01:14:05.608Z,23.83
2018-12-15T01:15:06.801Z,23.34
2018-12-15T01:16:07.958Z,23.80
2018-12-15T01:17:09.085Z,23.37
2018-12-15T01:18:10.267Z,23.29
2018-12-15T01:19:11.410Z,23.44
2018-12-15T01:20:12.549Z,23.43
2018-12-15T01:21:13.704Z,23.65
2018-12-15T01:22:14.829Z,23.58
2018-12-15T01:23:15.978Z,23.42
2018-12-15T01:24:17.117Z,23.43
2018-12-15T01:25:18.271Z,23.35
2018-12-15T01:26:19.409Z,23.19
2018-12-15T01:27:20.546Z,23.46
2018-12-15T01:28:21.696Z,23.16
2018-12-15T01:29:22.829Z,23.11
2018-12-15T01:30:23.974Z,23.09
2018-12-15T01:31:25.118Z,23.04
2018-12-15T01:32:26.266Z,23.05
2018-12-15T01:33:27.433Z,23.05
2018-12-15T01:34:28.598Z,23.25
2018-12-15T01:35:29.749Z,23.48
2018-12-15T01:36:31.013Z,23.32
2018-12-15T01:37:32.167Z,23.38
2018-12-15T01:38:33.287Z,23.28
2018-12-15T01:39:34.537Z,23.49
2018-12-15T01:40:35.677Z,23.81
2018-12-15T01:41:36.807Z,23.13
2018-12-15T01:42:37.953Z,23.72
2018-12-15T01:43:39.062Z,22.95
2018-12-15T01:44:40.257Z,22.95
2018-12-15T01:45:41.412Z,23.45
2018-12-15T01:46:42.550Z,23.10
2018-12-15T01:47:43.677Z,23.24
2018-12-15T01:48:44.809Z,23.50
2018-12-15T01:49:45.941Z,23.75
2018-12-15T01:50:47.114Z,23.10
2018-12-15T01:51:48.269Z,23.19
2018-12-15T01:52:56.366Z,22.85
2018-12-15T01:53:57.507Z,22.96
2018-12-15T01:54:58.662Z,23.22
2018-12-15T01:55:59.793Z,23.25
2018-12-15T01:57:00.934Z,23.51
2018-12-15T01:58:02.217Z,23.32
2018-12-15T01:59:03.437Z,23.22
2018-12-15T02:00:05.846Z,23.14
2018-12-15T02:01:06.992Z,23.27
2018-12-15T02:02:08.145Z,23.45
2018-12-15T02:03:09.289Z,23.77
2018-12-15T02:04:10.442Z,23.58
2018-12-15T02:05:11.620Z,23.99
2018-12-15T02:06:12.809Z,23.69
2018-12-15T02:07:13.987Z,23.92
2018-12-15T02:08:15.169Z,23.46
2018-12-15T02:09:16.301Z,23.88
2018-12-15T02:10:17.448Z,23.93
2018-12-15T02:11:18.703Z,23.75
2018-12-15T02:12:19.847Z,24.01
2018-12-15T02:13:20.994Z,23.52
2018-12-15T02:14:22.137Z,23.82
2018-12-15T02:15:23.293Z,23.85
2018-12-15T02:16:24.430Z,23.94
2018-12-15T02:17:25.565Z,24.10
2018-12-15T02:18:26.713Z,24.01
2018-12-15T02:19:27.862Z,23.90
2018-12-15T02:20:28.992Z,23.51
2018-12-15T02:21:30.126Z,23.50
2018-12-15T02:22:31.262Z,23.99
2018-12-15T02:23:32.414Z,24.07
2018-12-15T02:24:33.592Z,23.66
2018-12-15T02:25:34.746Z,23.34
2018-12-15T02:26:35.894Z,23.70
2018-12-15T02:27:37.042Z,23.57
2018-12-15T02:28:38.194Z,23.69
2018-12-15T02:29:39.396Z,23.94
2018-12-15T02:30:40.626Z,23.28
2018-12-15T02:31:41.755Z,23.42
2018-12-15T02:32:42.882Z,23.60
2018-12-15T02:33:44.035Z,23.67
2018-12-15T02:34:45.205Z,23.42
2018-12-15T02:35:46.417Z,23.56
2018-12-15T02:36:47.611Z,22.82
2018-12-15T02:37:48.765Z,23.14
2018-12-15T02:38:49.910Z,22.72
2018-12-15T02:39:51.061Z,22.70
2018-12-15T02:40:52.235Z,22.89
2018-12-15T02:41:53.414Z,23.06
2018-12-15T02:42:54.563Z,23.26
2018-12-15T02:43:55.751Z,23.20
2018-12-15T02:44:56.892Z,23.01
2018-12-15T02:45:58.075Z,22.85
2018-12-15T02:46:59.232Z,23.25
2018-12-15T02:48:00.422Z,23.08
2018-12-15T02:49:01.562Z,23.03
2018-12-15T02:50:03.270Z,23.40
2018-12-15T02:51:04.420Z,23.31
2018-12-15T02:52:05.582Z,23.17
2018-12-15T02:53:06.716Z,23.45
2018-12-15T02:54:07.873Z,23.37
2018-12-15T02:55:09.025Z,23.36
2018-12-15T02:56:10.167Z,22.78
2018-12-15T02:57:11.338Z,23.37
2018-12-15T02:58:12.479Z,23.44
2018-12-15T02:59:13.692Z,23.48
2018-12-15T03:00:14.848Z,23.56
2018-12-15T03:01:16.042Z,23.12
2018-12-15T03:02:17.186Z,23.14
2018-12-15T03:03:18.322Z,23.56
2018-12-15T03:04:19.513Z,22.76
2018-12-15T03:05:20.789Z,22.94
2018-12-15T03:06:22.651Z,22.89
2018-12-15T03:07:23.799Z,23.46
2018-12-15T03:08:24.958Z,23.08
2018-12-15T03:09:26.115Z,23.38
2018-12-15T03:10:27.279Z,23.44
2018-12-15T03:11:28.460Z,23.35
2018-12-15T03:12:29.611Z,23.11
2018-12-15T03:13:30.897Z,22.96
2018-12-15T03:14:32.025Z,23.54
2018-12-15T03:15:33.174Z,22.96
2018-12-15T03:16:34.344Z,23.58
2018-12-15T03:17:35.511Z,23.72
2018-12-15T03:18:36.652Z,23.55
2018-12-15T03:19:37.795Z,23.22
2018-12-15T03:20:40.972Z,23.67
2018-12-15T03:21:42.113Z,23.14
2018-12-15T03:22:43.282Z,23.62
2018-12-15T03:23:44.451Z,23.63
2018-12-15T03:24:45.619Z,23.28
2018-12-15T03:25:46.786Z,23.71
2018-12-15T03:26:47.931Z,23.27
2018-12-15T03:27:49.075Z,22.92
2018-12-15T03:28:50.225Z,23.14
2018-12-15T03:29:51.370Z,23.37
2018-12-15T03:30:52.527Z,23.04
2018-12-15T03:31:53.682Z,23.46
2018-12-15T03:32:54.852Z,23.09
2018-12-15T03:33:55.990Z,23.43
2018-12-15T03:34:57.168Z,23.48
2018-12-15T03:35:58.321Z,23.42
2018-12-15T03:36:59.465Z,23.49
2018-12-15T03:38:01.374Z,23.38
2018-12-15T03:39:04.143Z,22.81
2018-12-15T03:40:05.413Z,23.42
2018-12-15T03:41:06.618Z,23.30
2018-12-15T03:42:07.793Z,23.10
2018-12-15T03:43:08.918Z,23.42
2018-12-15T03:44:10.074Z,23.45
2018-12-15T03:45:11.206Z,23.39
2018-12-15T03:46:12.346Z,23.23
2018-12-15T03:47:13.502Z,22.81
2018-12-15T03:48:14.648Z,22.80
2018-12-15T03:49:15.791Z,23.16
2018-12-15T03:50:16.950Z,22.72
2018-12-15T03:51:18.116Z,22.57
2018-12-15T03:52:19.245Z,22.91
2018-12-15T03:53:20.391Z,22.87
2018-12-15T03:54:21.598Z,23.35
2018-12-15T03:55:22.751Z,23.01
2018-12-15T03:56:23.906Z,22.97
2018-12-15T03:57:25.044Z,23.22
2018-12-15T03:58:26.178Z,23.12
2018-12-15T03:59:27.550Z,23.18
2018-12-15T04:00:28.709Z,23.20
2018-12-15T04:01:29.856Z,22.84
2018-12-15T04:02:31.006Z,23.33
2018-12-15T04:03:32.146Z,23.31
2018-12-15T04:04:33.535Z,22.79
2018-12-15T04:05:34.662Z,22.60
2018-12-15T04:06:35.807Z,22.81
2018-12-15T04:07:36.969Z,23.02
2018-12-15T04:08:38.112Z,23.02
2018-12-15T04:09:39.262Z,22.47
2018-12-15T04:10:40.423Z,22.77
2018-12-15T04:11:41.565Z,23.01
2018-12-15T04:12:42.701Z,22.99
2018-12-15T04:13:43.828Z,22.59
2018-12-15T04:14:44.963Z,22.84
2018-12-15T04:15:46.109Z,22.60
2018-12-15T04:16:47.266Z,22.38
2018-12-15T04:17:48.447Z,22.53
2018-12-15T04:18:49.647Z,22.72
2018-12-15T04:19:50.801Z,23.11
2018-12-15T04:20:51.958Z,22.81
2018-12-15T04:21:57.168Z,23.20
2018-12-15T04:22:58.276Z,23.40
2018-12-15T04:23:59.431Z,22.85
2018-12-15T04:25:00.564Z,23.33
2018-12-15T04:26:01.711Z,23.34
2018-12-15T04:27:02.873Z,23.22
2018-12-15T04:28:04.035Z,23.03
2018-12-15T04:29:07.235Z,22.74
2018-12-15T04:30:08.729Z,22.85
2018-12-15T04:31:09.874Z,23.46
2018-12-15T04:32:11.141Z,23.45
2018-12-15T04:33:12.315Z,22.92
2018-12-15T04:34:13.452Z,23.18
2018-12-15T04:35:14.607Z,23.26
2018-12-15T04:36:16.014Z,22.92
2018-12-15T04:37:17.150Z,23.54
2018-12-15T04:38:18.281Z,23.57
2018-12-15T04:39:19.415Z,23.55
2018-12-15T04:40:20.803Z,23.52
2018-12-15T04:41:21.962Z,23.00
2018-12-15T04:42:23.086Z,22.94
2018-12-15T04:43:24.227Z,23.18
2018-12-15T04:44:25.436Z,22.67
2018-12-15T04:45:26.678Z,23.16
2018-12-15T04:46:27.818Z,22.83
2018-12-15T04:47:29.089Z,23.22
2018-12-15T04:48:30.218Z,23.45
2018-12-15T04:49:31.358Z,23.58
2018-12-15T04:50:32.505Z,23.10
2018-12-15T04:51:33.641Z,23.06
2018-12-15T04:52:34.771Z,22.72
2018-12-15T04:53:35.899Z,23.23
2018-12-15T04:54:37.060Z,22.92
2018-12-15T04:55:38.200Z,22.68
2018-12-15T04:56:39.334Z,23.11
2018-12-15T04:57:40.461Z,22.76
2018-12-15T04:58:41.650Z,22.63
2018-12-15T04:59:42.870Z,23.26
2018-12-15T05:00:44.009Z,22.95
2018-12-15T05:01:45.162Z,23.28
2018-12-15T05:02:46.324Z,23.17
2018-12-15T05:03:47.486Z,22.98
2018-12-15T05:04:48.648Z,23.22
2018-12-15T05:05:49.774Z,22.86
2018-12-15T05:06:50.907Z,23.04
2018-12-15T05:07:52.053Z,22.93
2018-12-15T05:08:53.174Z,23.07
2018-12-15T05:09:54.310Z,23.06
2018-12-15T05:10:55.519Z,22.62
2018-12-15T05:11:56.657Z,22.48
2018-12-15T05:12:57.785Z,22.83
2018-12-15T05:13:58.925Z,22.74
2018-12-15T05:15:00.049Z,22.62
2018-12-15T05:16:01.231Z,23.10
2018-12-15T05:17:02.382Z,22.98
2018-12-15T05:18:03.545Z,23.03
2018-12-15T05:19:04.687Z,22.64
2018-12-15T05:20:07.357Z,22.53
2018-12-15T05:21:08.738Z,23.10
2018-12-15T05:22:10.007Z,22.75
2018-12-15T05:23:11.151Z,22.83
2018-12-15T05:24:12.351Z,22.83
2018-12-15T05:25:13.570Z,22.77
2018-12-15T05:26:14.694Z,22.98
2018-12-15T05:27:15.989Z,22.97
2018-12-15T05:28:17.171Z,22.92
2018-12-15T05:29:18.301Z,22.32
2018-12-15T05:30:19.442Z,22.62
2018-12-15T05:31:20.605Z,22.53
2018-12-15T05:32:21.777Z,22.67
2018-12-15T05:33:22.935Z,23.12
2018-12-15T05:34:24.078Z,22.52
2018-12-15T05:35:25.214Z,22.73
2018-12-15T05:36:26.359Z,22.65
2018-12-15T05:37:27.742Z,22.94
2018-12-15T05:38:28.871Z,22.84
2018-12-15T05:39:30.021Z,23.33
2018-12-15T05:40:31.170Z,22.95
2018-12-15T05:41:32.328Z,23.29
2018-12-15T05:42:33.476Z,23.10
2018-12-15T05:43:34.610Z,23.05
2018-12-15T05:44:35.751Z,23.08
2018-12-15T05:45:36.873Z,23.40
2018-12-15T05:46:38.011Z,23.01
2018-12-15T05:47:39.142Z,23.01
2018-12-15T05:48:40.311Z,23.07
2018-12-15T05:49:41.429Z,22.90
2018-12-15T05:50:42.581Z,23.03
2018-12-15T05:51:43.738Z,22.92
2018-12-15T05:52:44.869Z,23.23
2018-12-15T05:53:46.037Z,22.97
2018-12-15T05:54:47.214Z,23.40
2018-12-15T05:55:48.350Z,23.06
2018-12-15T05:56:49.497Z,22.65
2018-12-15T05:57:50.630Z,22.43
2018-12-15T05:58:51.747Z,22.44
2018-12-15T05:59:52.881Z,22.87
2018-12-15T06:00:54.014Z,22.42
2018-12-15T06:01:55.146Z,22.50
2018-12-15T06:02:56.290Z,22.62
2018-12-15T06:03:57.427Z,22.98
2018-12-15T06:04:58.720Z,22.83
2018-12-15T06:05:59.871Z,23.18
2018-12-15T06:07:01.065Z,22.53
2018-12-15T06:08:02.259Z,22.64
2018-12-15T06:09:04.450Z,22.61
2018-12-15T06:10:05.724Z,22.52
2018-12-15T06:11:06.851Z,22.77
2018-12-15T06:12:07.989Z,22.85
2018-12-15T06:13:09.260Z,22.71
2018-12-15T06:14:10.385Z,22.47
2018-12-15T06:15:11.515Z,22.78
2018-12-15T06:16:12.662Z,22.97
2018-12-15T06:17:20.909Z,22.70
2018-12-15T06:18:22.061Z,22.48
2018-12-15T06:19:23.225Z,22.65
2018-12-15T06:20:24.362Z,22.70
2018-12-15T06:21:25.517Z,22.40
2018-12-15T06:22:26.677Z,22.65
2018-12-15T06:23:27.834Z,22.63
2018-12-15T06:24:28.973Z,22.19
2018-12-15T06:25:30.121Z,22.00
2018-12-15T06:26:31.255Z,22.19
2018-12-15T06:27:32.393Z,22.76
2018-12-15T06:28:33.550Z,22.21
2018-12-15T06:29:34.690Z,22.11
2018-12-15T06:30:35.826Z,22.69
2018-12-15T06:31:36.961Z,22.28
2018-12-15T06:32:38.099Z,22.18
2018-12-15T06:33:39.244Z,22.73
2018-12-15T06:34:40.393Z,22.30
2018-12-15T06:35:41.554Z,22.40
2018-12-15T06:36:42.713Z,22.46
2018-12-15T06:37:43.851Z,22.57
2018-12-15T06:38:44.993Z,22.72
2018-12-15T06:39:46.718Z,22.81
2018-12-15T06:40:48.006Z,22.28
2018-12-15T06:41:49.142Z,22.69
2018-12-15T06:42:50.335Z,22.85
2018-12-15T06:43:51.688Z,22.42
2018-12-15T06:44:52.906Z,22.79
2018-12-15T06:46:01.477Z,22.33
2018-12-15T06:47:02.653Z,22.58
2018-12-15T06:48:03.842Z,22.58
2018-12-15T06:49:04.983Z,22.42
2018-12-15T06:50:06.177Z,22.73
2018-12-15T06:51:07.336Z,22.67
2018-12-15T06:52:08.497Z,22.72
2018-12-15T06:53:09.646Z,23.11
2018-12-15T06:54:10.773Z,22.47
2018-12-15T06:55:11.922Z,22.53
2018-12-15T06:56:13.061Z,22.85
2018-12-15T06:57:14.219Z,23.02
2018-12-15T06:58:22.298Z,22.85
2018-12-15T06:59:23.468Z,22.59
2018-12-15T07:00:24.614Z,22.53
2018-12-15T07:01:25.740Z,22.80
2018-12-15T07:02:26.893Z,22.92
2018-12-15T07:03:28.018Z,22.63
2018-12-15T07:04:29.160Z,22.49
2018-12-15T07:05:30.310Z,22.57
2018-12-15T07:06:31.447Z,22.97
2018-12-15T07:07:32.593Z,22.92
2018-12-15T07:08:33.748Z,23.24
2018-12-15T07:09:34.892Z,23.09
2018-12-15T07:10:36.018Z,22.62
2018-12-15T07:11:37.150Z,22.81
2018-12-15T07:12:38.916Z,22.92
2018-12-15T07:13:40.277Z,22.81
2018-12-15T07:14:41.467Z,22.33
2018-12-15T07:15:42.606Z,22.70
2018-12-15T07:16:43.754Z,22.34
2018-12-15T07:17:44.902Z,22.51
2018-12-15T07:18:46.039Z,22.87
2018-12-15T07:19:47.194Z,22.34
2018-12-15T07:20:48.351Z,22.88
2018-12-15T07:21:49.478Z,22.46
2018-12-15T07:22:50.614Z,22.50
2018-12-15T07:23:51.810Z,22.52
2018-12-15T07:24:52.959Z,22.60
2018-12-15T07:25:54.086Z,22.62
2018-12-15T07:26:55.211Z,22.89
2018-12-15T07:27:56.337Z,22.97
2018-12-15T07:28:57.465Z,22.89
2018-12-15T07:29:58.609Z,22.43
2018-12-15T07:30:59.820Z,22.32
2018-12-15T07:32:00.950Z,22.23
2018-12-15T07:33:02.169Z,21.82
2018-12-15T07:34:03.385Z,21.95
2018-12-15T07:35:04.750Z,22.07
2018-12-15T07:36:05.916Z,21.76
2018-12-15T07:37:07.181Z,21.81
2018-12-15T07:38:08.333Z,21.78
2018-12-15T07:39:09.473Z,22.13
2018-12-15T07:40:10.630Z,21.79
2018-12-15T07:41:11.781Z,22.19
2018-12-15T07:42:12.926Z,22.02
2018-12-15T07:43:14.054Z,21.95
2018-12-15T07:44:15.178Z,22.01
2018-12-15T07:45:16.309Z,22.39
2018-12-15T07:46:17.481Z,21.87
2018-12-15T07:47:18.632Z,22.46
2018-12-15T07:48:19.782Z,22.48
2018-12-15T07:49:20.910Z,22.46
2018-12-15T07:50:22.049Z,22.26
2018-12-15T07:51:23.195Z,21.93
2018-12-15T07:52:24.374Z,22.37
2018-12-15T07:53:25.506Z,22.00
2018-12-15T07:54:26.670Z,21.96
2018-12-15T07:55:27.819Z,21.89
2018-12-15T07:56:28.965Z,22.58
2018-12-15T07:57:30.109Z,22.56
2018-12-15T07:58:31.251Z,22.57
2018-12-15T07:59:32.412Z,22.93
2018-12-15T08:00:33.570Z,22.91
2018-12-15T08:01:34.733Z,22.41
2018-12-15T08:02:35.877Z,22.74
2018-12-15T08:03:37.038Z,22.28
2018-12-15T08:04:38.207Z,22.51
2018-12-15T08:05:39.350Z,22.42
2018-12-15T08:06:40.485Z,22.44
2018-12-15T08:07:41.763Z,22.69
2018-12-15T08:08:42.938Z,22.66
2018-12-15T08:09:45.923Z,22.93
2018-12-15T08:10:53.194Z,22.67
2018-12-15T08:12:00.266Z,23.05
2018-12-15T08:13:02.346Z,22.79
2018-12-15T08:14:05.517Z,22.51
2018-12-15T08:15:06.787Z,23.09
2018-12-15T08:16:07.909Z,23.01
2018-12-15T08:17:09.109Z,23.14
2018-12-15T08:18:10.260Z,23.25
2018-12-15T08:19:11.421Z,22.78
2018-12-15T08:20:12.586Z,22.75
2018-12-15T08:21:13.728Z,22.79
2018-12-15T08:22:14.857Z,23.15
2018-12-15T08:23:16.010Z,23.17
2018-12-15T08:24:17.161Z,22.86
2018-12-15T08:25:18.355Z,22.54
2018-12-15T08:26:19.494Z,22.24
2018-12-15T08:27:20.635Z,22.88
2018-12-15T08:28:21.778Z,23.00
2018-12-15T08:29:22.921Z,22.94
2018-12-15T08:30:24.233Z,22.91
2018-12-15T08:31:25.376Z,22.89
2018-12-15T08:32:26.557Z,22.90
2018-12-15T08:33:27.712Z,22.20
2018-12-15T08:34:28.934Z,22.71
2018-12-15T08:35:30.129Z,22.59
2018-12-15T08:36:31.295Z,22.59
2018-12-15T08:37:32.937Z,22.39
2018-12-15T08:38:34.098Z,22.88
2018-12-15T08:39:35.273Z,22.44
2018-12-15T08:40:36.498Z,22.82
2018-12-15T08:41:37.671Z,22.62
2018-12-15T08:42:38.831Z,22.86
2018-12-15T08:43:39.977Z,22.30
2018-12-15T08:44:41.162Z,22.48
2018-12-15T08:45:42.309Z,22.57
2018-12-15T08:46:43.520Z,22.22
2018-12-15T08:47:44.875Z,22.48
2018-12-15T08:48:46.046Z,22.37
2018-12-15T08:49:47.219Z,22.82
2018-12-15T08:50:48.519Z,22.71
2018-12-15T08:51:49.683Z,22.78
2018-12-15T08:52:50.845Z,22.09
2018-12-15T08:53:52.114Z,22.16
2018-12-15T08:54:54.126Z,22.09
2018-12-15T08:55:55.413Z,22.15
2018-12-15T08:56:56.690Z,22.40
2018-12-15T08:57:57.908Z,22.01
2018-12-15T08:58:59.061Z,21.99
2018-12-15T09:00:00.234Z,22.43
2018-12-15T09:01:01.391Z,22.60
2018-12-15T09:02:02.806Z,22.41
2018-12-15T09:04:11.985Z,22.52
2018-12-15T09:05:13.161Z,22.55
2018-12-15T09:06:14.323Z,22.62
2018-12-15T09:07:16.599Z,22.62
2018-12-15T09:08:17.830Z,22.64
2018-12-15T09:09:18.979Z,22.82
2018-12-15T09:10:20.130Z,22.40
2018-12-15T09:11:21.251Z,22.89
2018-12-15T09:12:22.396Z,23.07
2018-12-15T09:13:23.617Z,23.00
2018-12-15T09:14:24.733Z,22.85
2018-12-15T09:15:25.870Z,22.65
2018-12-15T09:16:33.906Z,23.19
2018-12-15T09:17:35.030Z,23.05
2018-12-15T09:18:36.508Z,23.33
2018-12-15T09:19:37.668Z,22.66
2018-12-15T09:20:38.829Z,22.90
2018-12-15T09:21:39.990Z,22.69
2018-12-15T09:22:41.110Z,22.93
2018-12-15T09:23:42.245Z,23.04
2018-12-15T09:24:43.360Z,22.66
2018-12-15T09:25:51.371Z,23.01
2018-12-15T09:26:52.505Z,22.58
2018-12-15T09:27:53.637Z,22.72
2018-12-15T09:28:54.758Z,22.99
2018-12-15T09:29:55.877Z,22.69
2018-12-15T09:30:57.025Z,23.11
2018-12-15T09:31:58.161Z,22.98
2018-12-15T09:32:59.285Z,22.94
2018-12-15T09:34:07.206Z,23.26
2018-12-15T09:35:08.343Z,22.71
2018-12-15T09:36:09.466Z,22.57
2018-12-15T09:37:17.573Z,22.59
2018-12-15T09:38:18.709Z,22.75
2018-12-15T09:39:19.817Z,22.76
2018-12-15T09:40:20.931Z,22.86
2018-12-15T09:41:22.046Z,22.23
2018-12-15T09:42:23.316Z,22.60
2018-12-15T09:43:24.437Z,22.29
2018-12-15T09:44:25.731Z,22.87
2018-12-15T09:45:26.891Z,22.79
2018-12-15T09:46:28.051Z,22.66
2018-12-15T09:47:29.178Z,22.76
2018-12-15T09:48:30.304Z,22.28
2018-12-15T09:49:31.517Z,22.63
2018-12-15T09:50:32.772Z,22.92
2018-12-15T09:51:33.878Z,22.83
2018-12-15T09:52:35.146Z,22.48
2018-12-15T09:53:36.409Z,22.77
2018-12-15T09:54:37.533Z,22.67
2018-12-15T09:55:38.654Z,22.23
2018-12-15T09:56:39.785Z,22.23
2018-12-15T09:57:40.910Z,22.47
2018-12-15T09:58:42.028Z,22.50
2018-12-15T09:59:43.166Z,22.11
2018-12-15T10:00:44.453Z,22.53
2018-12-15T10:01:45.627Z,22.95
2018-12-15T10:02:46.828Z,22.55
2018-12-15T10:03:47.961Z,22.51
2018-12-15T10:04:49.097Z,22.42
2018-12-15T10:05:50.249Z,22.66
2018-12-15T10:06:51.374Z,22.54
2018-12-15T10:07:52.493Z,22.73
2018-12-15T10:08:53.619Z,22.25
2018-12-15T10:09:54.737Z,22.68
2018-12-15T10:10:55.849Z,22.37
2018-12-15T10:11:56.994Z,22.21
2018-12-15T10:12:58.161Z,22.51
2018-12-15T10:14:06.248Z,22.83
2018-12-15T10:15:14.377Z,22.79
2018-12-15T10:16:15.517Z,22.21
2018-12-15T10:17:16.645Z,22.39
2018-12-15T10:18:17.777Z,22.71
2018-12-15T10:19:24.296Z,22.64
2018-12-15T10:20:22.061Z,22.95
2018-12-15T10:21:23.185Z,22.51
2018-12-15T10:22:24.321Z,22.85
2018-12-15T10:23:32.585Z,22.72
2018-12-15T10:24:33.697Z,22.44
2018-12-15T10:25:34.813Z,22.29
2018-12-15T10:26:35.937Z,22.80
2018-12-15T10:27:37.049Z,22.70
2018-12-15T10:28:38.183Z,22.93
2018-12-15T10:29:45.326Z,22.54
2018-12-15T10:30:52.389Z,22.65
2018-12-15T10:31:59.618Z,22.93
2018-12-15T10:33:08.177Z,23.38
2018-12-15T10:34:09.301Z,22.77
2018-12-15T10:35:10.421Z,23.28
2018-12-15T10:36:11.543Z,23.16
2018-12-15T10:37:12.667Z,22.85
2018-12-15T10:38:13.781Z,22.93
2018-12-15T10:39:14.910Z,22.44
2018-12-15T10:40:16.173Z,22.82
2018-12-15T10:41:17.301Z,22.81
2018-12-15T10:42:18.443Z,22.79
2018-12-15T10:43:19.566Z,22.71
2018-12-15T10:44:20.689Z,22.53
2018-12-15T10:45:21.825Z,22.83
2018-12-15T10:46:22.950Z,22.85
2018-12-15T10:47:24.070Z,22.57
2018-12-15T10:48:25.199Z,22.69
2018-12-15T10:49:30.629Z,22.35
2018-12-15T10:50:29.534Z,22.88
2018-12-15T10:51:30.663Z,22.48
2018-12-15T10:52:31.780Z,22.90
2018-12-15T10:53:32.917Z,22.34
2018-12-15T10:54:34.170Z,22.49
2018-12-15T10:55:35.273Z,22.78
2018-12-15T10:56:36.393Z,22.20
2018-12-15T10:57:37.530Z,22.76
2018-12-15T10:58:38.645Z,22.63
2018-12-15T10:59:39.781Z,22.80
2018-12-15T11:00:46.957Z,22.31
2018-12-15T11:01:48.101Z,22.52
2018-12-15T11:02:49.256Z,22.30
2018-12-15T11:03:50.414Z,22.22
2018-12-15T11:04:51.573Z,22.79
2018-12-15T11:05:52.734Z,22.33
2018-12-15T11:06:53.857Z,22.56
2018-12-15T11:07:54.982Z,22.73
2018-12-15T11:08:56.155Z,22.41
2018-12-15T11:09:57.282Z,22.04
2018-12-15T11:10:58.402Z,22.11
2018-12-15T11:11:59.747Z,22.71
2018-12-15T11:13:00.857Z,22.82
2018-12-15T11:14:01.994Z,22.82
2018-12-15T11:15:04.191Z,22.86
2018-12-15T11:16:05.322Z,22.27
2018-12-15T11:17:06.459Z,22.51
2018-12-15T11:18:07.574Z,22.65
2018-12-15T11:19:15.521Z,22.45
2018-12-15T11:20:16.653Z,22.30
2018-12-15T11:21:17.817Z,22.67
2018-12-15T11:22:18.953Z,22.16
2018-12-15T11:23:20.081Z,22.38
2018-12-15T11:24:21.206Z,22.86
2018-12-15T11:25:22.469Z,22.86
2018-12-15T11:26:23.585Z,22.43
2018-12-15T11:27:24.741Z,22.17
2018-12-15T11:28:32.937Z,22.71
2018-12-15T11:29:41.078Z,22.61
2018-12-15T11:30:42.210Z,22.59
2018-12-15T11:31:43.325Z,22.81
2018-12-15T11:32:44.453Z,22.74
2018-12-15T11:33:45.627Z,22.79
2018-12-15T11:34:46.749Z,22.31
2018-12-15T11:35:47.880Z,22.49
2018-12-15T11:36:48.993Z,22.54
2018-12-15T11:37:50.113Z,22.68
2018-12-15T11:38:51.233Z,22.70
2018-12-15T11:39:52.353Z,22.38
2018-12-15T11:40:53.492Z,22.35
2018-12-15T11:41:54.634Z,22.72
2018-12-15T11:42:55.798Z,22.82
2018-12-15T11:43:56.925Z,22.21
2018-12-15T11:44:58.089Z,22.30
2018-12-15T11:45:59.225Z,22.52
2018-12-15T11:47:00.349Z,22.60
2018-12-15T11:48:01.465Z,22.18
2018-12-15T11:49:02.951Z,22.63
2018-12-15T11:50:04.325Z,22.46
2018-12-15T11:51:05.437Z,22.45
2018-12-15T11:52:06.595Z,22.57
2018-12-15T11:53:07.705Z,22.78
2018-12-15T11:54:08.870Z,22.93
2018-12-15T11:55:10.018Z,22.81
2018-12-15T11:56:11.235Z,22.96
2018-12-15T11:57:13.312Z,22.33
2018-12-15T11:58:14.474Z,22.16
2018-12-15T11:59:15.606Z,22.17
2018-12-15T12:00:17.373Z,22.52
2018-12-15T12:01:18.506Z,22.46
2018-12-15T12:02:19.637Z,22.51
2018-12-15T12:03:20.765Z,22.39
2018-12-15T12:04:21.896Z,22.46
2018-12-15T12:05:23.026Z,22.53
2018-12-15T12:06:24.169Z,22.70
2018-12-15T12:07:25.293Z,22.50
2018-12-15T12:08:26.415Z,22.25
2018-12-15T12:09:27.541Z,22.15
2018-12-15T12:10:28.677Z,22.33
2018-12-15T12:11:29.814Z,22.84
2018-12-15T12:12:31.859Z,22.54
2018-12-15T12:13:33.296Z,22.96
2018-12-15T12:14:34.438Z,22.88
2018-12-15T12:15:35.561Z,22.75
2018-12-15T12:16:36.716Z,22.49
2018-12-15T12:17:44.705Z,22.57
2018-12-15T12:18:45.891Z,22.42
2018-12-15T12:19:50.158Z,22.44
2018-12-15T12:20:50.145Z,22.19
2018-12-15T12:21:51.281Z,22.19
2018-12-15T12:22:52.428Z,22.05
2018-12-15T12:23:53.545Z,22.49
2018-12-15T12:24:54.690Z,22.74
2018-12-15T12:25:55.843Z,22.05
2018-12-15T12:26:57.036Z,22.34
2018-12-15T12:27:58.173Z,22.22
2018-12-15T12:28:59.297Z,22.43
2018-12-15T12:30:00.440Z,22.27
2018-12-15T12:31:01.577Z,22.07
2018-12-15T12:32:02.730Z,22.62
2018-12-15T12:33:03.871Z,22.32
2018-12-15T12:34:05.029Z,21.85
2018-12-15T12:35:06.285Z,21.79
2018-12-15T12:36:07.425Z,21.95
2018-12-15T12:37:08.549Z,21.89
2018-12-15T12:38:09.657Z,21.77
2018-12-15T12:39:10.776Z,21.65
2018-12-15T12:40:11.931Z,21.88
2018-12-15T12:41:13.092Z,22.50
2018-12-15T12:42:14.217Z,22.40
2018-12-15T12:43:15.359Z,21.82
2018-12-15T12:44:16.513Z,22.21
2018-12-15T12:45:17.777Z,22.08
2018-12-15T12:46:18.929Z,22.44
2018-12-15T12:47:20.166Z,22.53
2018-12-15T12:48:21.366Z,22.51
2018-12-15T12:49:22.561Z,22.71
2018-12-15T12:50:23.702Z,22.46
2018-12-15T12:51:24.962Z,22.56
2018-12-15T12:52:26.129Z,22.76
2018-12-15T12:53:27.249Z,22.41
2018-12-15T12:54:28.466Z,22.03
2018-12-15T12:55:29.640Z,22.51
2018-12-15T12:56:30.766Z,22.15
2018-12-15T12:57:31.886Z,22.70
2018-12-15T12:58:33.031Z,22.22
2018-12-15T12:59:34.175Z,22.23
2018-12-15T13:00:35.479Z,22.09
2018-12-15T13:01:36.634Z,22.47
2018-12-15T13:02:37.789Z,22.07
2018-12-15T13:03:38.917Z,22.49
2018-12-15T13:04:40.051Z,22.01
2018-12-15T13:05:41.174Z,22.40
2018-12-15T13:06:42.307Z,22.11
2018-12-15T13:07:43.450Z,22.13
2018-12-15T13:08:44.570Z,22.28
2018-12-15T13:09:45.733Z,22.30
2018-12-15T13:10:46.867Z,22.09
2018-12-15T13:11:48.006Z,22.65